sensor_id;sensor_type;location;lat;lon;timestamp;temperature;humidity
3208;DHT22;1616;52.394;9.756;2023-04-24T00:00:13;12.60;1.00
3208;DHT22;1616;52.394;9.756;2023-04-24T00:02:41;12.60;1.00
3208;DHT22;1616;52.394;9.756;2023-04-24T00:05:10;12.60;1.00
3208;DHT22;1616;52.394;9.756;2023-04-24T00:07:35;12.70;1.00
3208;DHT22;1616;52.394;9.756;2023-04-24T00:10:01;12.70;1.00
3208;DHT22;1616;52.394;9.756;2023-04-24T00:12:27;12.70;1.00
3208;DHT22;1616;52.394;9.756;2023-04-24T00:14:53;12.80;1.00
3208;DHT22;1616;52.394;9.756;2023-04-24T00:17:19;12.80;1.00
3208;DHT22;1616;52.394;9.756;2023-04-24T00:19:48;12.70;1.00
3208;DHT22;1616;52.394;9.756;2023-04-24T00:22:14;12.80;1.00
3208;DHT22;1616;52.394;9.756;2023-04-24T00:24:40;12.80;1.00
3208;DHT22;1616;52.394;9.756;2023-04-24T00:27:06;12.70;1.00
3208;DHT22;1616;52.394;9.756;2023-04-24T00:29:31;12.80;1.00
3208;DHT22;1616;52.394;9.756;2023-04-24T00:31:57;12.80;1.00
3208;DHT22;1616;52.394;9.756;2023-04-24T00:34:23;12.80;1.00
3208;DHT22;1616;52.394;9.756;2023-04-24T00:36:49;12.70;1.00
3208;DHT22;1616;52.394;9.756;2023-04-24T00:39:20;12.70;1.00
3208;DHT22;1616;52.394;9.756;2023-04-24T00:41:47;12.80;1.00
3208;DHT22;1616;52.394;9.756;2023-04-24T00:44:14;12.80;1.00
3208;DHT22;1616;52.394;9.756;2023-04-24T00:46:40;12.70;1.00
3208;DHT22;1616;52.394;9.756;2023-04-24T00:49:06;12.80;1.00
3208;DHT22;1616;52.394;9.756;2023-04-24T00:51:32;12.80;1.00
3208;DHT22;1616;52.394;9.756;2023-04-24T00:53:58;12.80;1.00
3208;DHT22;1616;52.394;9.756;2023-04-24T00:56:25;12.80;1.00
3208;DHT22;1616;52.394;9.756;2023-04-24T00:58:51;12.70;1.00
3208;DHT22;1616;52.394;9.756;2023-04-24T01:01:20;12.70;1.00
3208;DHT22;1616;52.394;9.756;2023-04-24T01:03:46;12.70;1.00
3208;DHT22;1616;52.394;9.756;2023-04-24T01:06:12;12.70;1.00
3208;DHT22;1616;52.394;9.756;2023-04-24T01:08:39;12.80;1.00
3208;DHT22;1616;52.394;9.756;2023-04-24T01:11:06;12.80;1.00
3208;DHT22;1616;52.394;9.756;2023-04-24T01:13:32;12.70;1.00
3208;DHT22;1616;52.394;9.756;2023-04-24T01:15:58;12.80;1.00
3208;DHT22;1616;52.394;9.756;2023-04-24T01:18:24;12.70;1.00
3208;DHT22;1616;52.394;9.756;2023-04-24T01:20:51;12.80;1.00
3208;DHT22;1616;52.394;9.756;2023-04-24T01:23:18;12.80;1.00
3208;DHT22;1616;52.394;9.756;2023-04-24T01:25:44;12.70;1.00
3208;DHT22;1616;52.394;9.756;2023-04-24T01:28:10;12.70;1.00
3208;DHT22;1616;52.394;9.756;2023-04-24T01:30:36;12.70;1.00
3208;DHT22;1616;52.394;9.756;2023-04-24T01:33:02;12.60;1.00
3208;DHT22;1616;52.394;9.756;2023-04-24T01:35:28;12.60;1.00
3208;DHT22;1616;52.394;9.756;2023-04-24T01:37:53;12.60;1.00
3208;DHT22;1616;52.394;9.756;2023-04-24T01:40:19;12.50;1.00
3208;DHT22;1616;52.394;9.756;2023-04-24T01:42:45;12.50;1.00
3208;DHT22;1616;52.394;9.756;2023-04-24T01:45:11;12.50;1.00
3208;DHT22;1616;52.394;9.756;2023-04-24T01:47:39;12.40;1.00
3208;DHT22;1616;52.394;9.756;2023-04-24T01:50:06;12.40;1.00
3208;DHT22;1616;52.394;9.756;2023-04-24T01:52:32;12.40;1.00
3208;DHT22;1616;52.394;9.756;2023-04-24T01:55:02;12.40;1.00
3208;DHT22;1616;52.394;9.756;2023-04-24T01:57:30;12.40;1.00
3208;DHT22;1616;52.394;9.756;2023-04-24T01:59:56;12.30;1.00
3208;DHT22;1616;52.394;9.756;2023-04-24T02:02:22;12.30;1.00
3208;DHT22;1616;52.394;9.756;2023-04-24T02:04:50;12.30;1.00
3208;DHT22;1616;52.394;9.756;2023-04-24T02:07:16;12.30;1.00
3208;DHT22;1616;52.394;9.756;2023-04-24T02:09:42;12.30;1.00
3208;DHT22;1616;52.394;9.756;2023-04-24T02:12:07;12.30;1.00
3208;DHT22;1616;52.394;9.756;2023-04-24T02:14:33;12.30;1.00
3208;DHT22;1616;52.394;9.756;2023-04-24T02:16:58;12.30;1.00
3208;DHT22;1616;52.394;9.756;2023-04-24T02:19:24;12.30;1.00
3208;DHT22;1616;52.394;9.756;2023-04-24T02:21:50;12.30;1.00
3208;DHT22;1616;52.394;9.756;2023-04-24T02:24:15;12.30;1.00
3208;DHT22;1616;52.394;9.756;2023-04-24T02:26:41;12.40;1.00
3208;DHT22;1616;52.394;9.756;2023-04-24T02:29:07;12.30;1.00
3208;DHT22;1616;52.394;9.756;2023-04-24T02:31:32;12.40;1.00
3208;DHT22;1616;52.394;9.756;2023-04-24T02:33:59;12.30;1.00
3208;DHT22;1616;52.394;9.756;2023-04-24T02:36:25;12.30;1.00
3208;DHT22;1616;52.394;9.756;2023-04-24T02:38:50;12.30;1.00
3208;DHT22;1616;52.394;9.756;2023-04-24T02:41:16;12.30;1.00
3208;DHT22;1616;52.394;9.756;2023-04-24T02:43:41;12.20;1.00
3208;DHT22;1616;52.394;9.756;2023-04-24T02:46:07;12.20;1.00
3208;DHT22;1616;52.394;9.756;2023-04-24T02:48:33;12.20;1.00
3208;DHT22;1616;52.394;9.756;2023-04-24T02:50:58;12.20;1.00
3208;DHT22;1616;52.394;9.756;2023-04-24T02:53:24;12.20;1.00
3208;DHT22;1616;52.394;9.756;2023-04-24T02:55:50;12.10;1.00
3208;DHT22;1616;52.394;9.756;2023-04-24T02:58:16;12.10;1.00
3208;DHT22;1616;52.394;9.756;2023-04-24T03:00:42;12.00;1.00
3208;DHT22;1616;52.394;9.756;2023-04-24T03:03:09;11.90;1.00
3208;DHT22;1616;52.394;9.756;2023-04-24T03:05:35;11.90;1.00
3208;DHT22;1616;52.394;9.756;2023-04-24T03:08:00;11.90;1.00
3208;DHT22;1616;52.394;9.756;2023-04-24T03:10:27;11.80;1.00
3208;DHT22;1616;52.394;9.756;2023-04-24T03:12:53;11.80;1.00
3208;DHT22;1616;52.394;9.756;2023-04-24T03:15:20;11.80;1.00
3208;DHT22;1616;52.394;9.756;2023-04-24T03:17:45;11.80;1.00
3208;DHT22;1616;52.394;9.756;2023-04-24T03:20:12;11.80;1.00
3208;DHT22;1616;52.394;9.756;2023-04-24T03:22:38;11.80;1.00
3208;DHT22;1616;52.394;9.756;2023-04-24T03:25:04;11.80;1.00
3208;DHT22;1616;52.394;9.756;2023-04-24T03:27:30;11.80;1.00
3208;DHT22;1616;52.394;9.756;2023-04-24T03:29:56;11.80;1.00
3208;DHT22;1616;52.394;9.756;2023-04-24T03:32:22;11.80;1.00
3208;DHT22;1616;52.394;9.756;2023-04-24T03:34:50;11.80;1.00
3208;DHT22;1616;52.394;9.756;2023-04-24T03:37:16;11.80;1.00
3208;DHT22;1616;52.394;9.756;2023-04-24T03:39:43;11.80;1.00
3208;DHT22;1616;52.394;9.756;2023-04-24T03:42:09;11.80;1.00
3208;DHT22;1616;52.394;9.756;2023-04-24T03:44:35;11.80;1.00
3208;DHT22;1616;52.394;9.756;2023-04-24T03:47:01;11.70;1.00
3208;DHT22;1616;52.394;9.756;2023-04-24T03:49:27;11.70;1.00
3208;DHT22;1616;52.394;9.756;2023-04-24T03:51:52;11.70;1.00
3208;DHT22;1616;52.394;9.756;2023-04-24T03:54:18;11.70;1.00
3208;DHT22;1616;52.394;9.756;2023-04-24T03:56:44;11.70;1.00
3208;DHT22;1616;52.394;9.756;2023-04-24T03:59:10;11.70;1.00
3208;DHT22;1616;52.394;9.756;2023-04-24T04:01:36;11.70;1.00
3208;DHT22;1616;52.394;9.756;2023-04-24T04:04:08;11.60;1.00
3208;DHT22;1616;52.394;9.756;2023-04-24T04:06:34;11.60;1.00
3208;DHT22;1616;52.394;9.756;2023-04-24T04:09:01;11.60;1.00
3208;DHT22;1616;52.394;9.756;2023-04-24T04:11:27;11.60;1.00
3208;DHT22;1616;52.394;9.756;2023-04-24T04:13:53;11.60;1.00
3208;DHT22;1616;52.394;9.756;2023-04-24T04:16:18;11.70;1.00
3208;DHT22;1616;52.394;9.756;2023-04-24T04:18:44;11.60;1.00
3208;DHT22;1616;52.394;9.756;2023-04-24T04:21:10;11.60;1.00
3208;DHT22;1616;52.394;9.756;2023-04-24T04:23:36;11.70;1.00
3208;DHT22;1616;52.394;9.756;2023-04-24T04:26:03;11.90;1.00
3208;DHT22;1616;52.394;9.756;2023-04-24T04:28:29;12.10;1.00
3208;DHT22;1616;52.394;9.756;2023-04-24T04:30:57;12.20;1.00
3208;DHT22;1616;52.394;9.756;2023-04-24T04:33:26;12.30;1.00
3208;DHT22;1616;52.394;9.756;2023-04-24T04:35:52;12.50;1.00
3208;DHT22;1616;52.394;9.756;2023-04-24T04:38:19;12.50;1.00
3208;DHT22;1616;52.394;9.756;2023-04-24T04:40:45;12.60;1.00
3208;DHT22;1616;52.394;9.756;2023-04-24T04:43:11;12.70;1.00
3208;DHT22;1616;52.394;9.756;2023-04-24T04:45:37;12.80;1.00
3208;DHT22;1616;52.394;9.756;2023-04-24T04:48:04;13.00;1.00
3208;DHT22;1616;52.394;9.756;2023-04-24T04:50:30;13.10;1.00
3208;DHT22;1616;52.394;9.756;2023-04-24T04:52:56;13.20;1.00
3208;DHT22;1616;52.394;9.756;2023-04-24T04:55:21;13.30;1.00
3208;DHT22;1616;52.394;9.756;2023-04-24T04:57:47;13.60;1.00
3208;DHT22;1616;52.394;9.756;2023-04-24T05:00:13;14.00;1.00
3208;DHT22;1616;52.394;9.756;2023-04-24T05:02:39;14.10;1.00
3208;DHT22;1616;52.394;9.756;2023-04-24T05:05:05;14.20;1.00
3208;DHT22;1616;52.394;9.756;2023-04-24T05:07:32;14.20;1.00
3208;DHT22;1616;52.394;9.756;2023-04-24T05:09:58;14.30;1.00
3208;DHT22;1616;52.394;9.756;2023-04-24T05:12:24;14.30;1.00
3208;DHT22;1616;52.394;9.756;2023-04-24T05:14:50;14.60;1.00
3208;DHT22;1616;52.394;9.756;2023-04-24T05:17:15;15.10;1.00
3208;DHT22;1616;52.394;9.756;2023-04-24T05:19:41;15.50;1.00
3208;DHT22;1616;52.394;9.756;2023-04-24T05:22:07;15.70;1.00
3208;DHT22;1616;52.394;9.756;2023-04-24T05:24:35;15.80;1.00
3208;DHT22;1616;52.394;9.756;2023-04-24T05:27:02;15.90;1.00
3208;DHT22;1616;52.394;9.756;2023-04-24T05:29:28;16.00;1.00
3208;DHT22;1616;52.394;9.756;2023-04-24T05:31:56;16.20;1.00
3208;DHT22;1616;52.394;9.756;2023-04-24T05:34:22;16.70;1.00
3208;DHT22;1616;52.394;9.756;2023-04-24T05:36:47;16.80;1.00
3208;DHT22;1616;52.394;9.756;2023-04-24T05:39:14;17.20;1.00
3208;DHT22;1616;52.394;9.756;2023-04-24T05:41:41;17.80;1.00
3208;DHT22;1616;52.394;9.756;2023-04-24T05:44:07;18.50;1.00
3208;DHT22;1616;52.394;9.756;2023-04-24T05:46:32;19.10;1.00
3208;DHT22;1616;52.394;9.756;2023-04-24T05:48:58;19.80;1.00
3208;DHT22;1616;52.394;9.756;2023-04-24T05:51:23;20.50;1.00
3208;DHT22;1616;52.394;9.756;2023-04-24T05:53:49;20.70;1.00
3208;DHT22;1616;52.394;9.756;2023-04-24T05:56:15;20.60;1.00
3208;DHT22;1616;52.394;9.756;2023-04-24T05:58:41;20.30;1.00
3208;DHT22;1616;52.394;9.756;2023-04-24T06:01:07;19.90;1.00
3208;DHT22;1616;52.394;9.756;2023-04-24T06:03:33;19.60;1.00
3208;DHT22;1616;52.394;9.756;2023-04-24T06:05:59;19.50;1.00
3208;DHT22;1616;52.394;9.756;2023-04-24T06:08:25;19.20;1.00
3208;DHT22;1616;52.394;9.756;2023-04-24T06:10:51;18.80;1.00
3208;DHT22;1616;52.394;9.756;2023-04-24T06:13:17;18.40;1.00
3208;DHT22;1616;52.394;9.756;2023-04-24T06:15:43;18.10;1.00
3208;DHT22;1616;52.394;9.756;2023-04-24T06:18:10;17.80;1.00
3208;DHT22;1616;52.394;9.756;2023-04-24T06:20:36;17.40;1.00
3208;DHT22;1616;52.394;9.756;2023-04-24T06:23:02;17.00;1.00
3208;DHT22;1616;52.394;9.756;2023-04-24T06:25:27;16.50;1.00
3208;DHT22;1616;52.394;9.756;2023-04-24T06:27:54;16.10;1.00
3208;DHT22;1616;52.394;9.756;2023-04-24T06:30:20;15.70;1.00
3208;DHT22;1616;52.394;9.756;2023-04-24T06:32:45;15.40;1.00
3208;DHT22;1616;52.394;9.756;2023-04-24T06:35:11;15.10;1.00
3208;DHT22;1616;52.394;9.756;2023-04-24T06:37:41;14.90;1.00
3208;DHT22;1616;52.394;9.756;2023-04-24T06:40:08;14.70;1.00
3208;DHT22;1616;52.394;9.756;2023-04-24T06:42:34;14.50;1.00
3208;DHT22;1616;52.394;9.756;2023-04-24T06:45:00;14.40;1.00
3208;DHT22;1616;52.394;9.756;2023-04-24T06:47:26;14.30;1.00
3208;DHT22;1616;52.394;9.756;2023-04-24T06:49:52;14.30;1.00
3208;DHT22;1616;52.394;9.756;2023-04-24T06:52:18;14.30;1.00
3208;DHT22;1616;52.394;9.756;2023-04-24T06:54:44;14.40;1.00
3208;DHT22;1616;52.394;9.756;2023-04-24T06:57:10;14.50;1.00
3208;DHT22;1616;52.394;9.756;2023-04-24T06:59:36;14.60;1.00
3208;DHT22;1616;52.394;9.756;2023-04-24T07:02:02;14.70;1.00
3208;DHT22;1616;52.394;9.756;2023-04-24T07:04:28;14.80;1.00
3208;DHT22;1616;52.394;9.756;2023-04-24T07:06:54;14.90;1.00
3208;DHT22;1616;52.394;9.756;2023-04-24T07:09:24;15.00;1.00
3208;DHT22;1616;52.394;9.756;2023-04-24T07:11:51;15.00;1.00
3208;DHT22;1616;52.394;9.756;2023-04-24T07:14:17;15.00;1.00
3208;DHT22;1616;52.394;9.756;2023-04-24T07:16:43;15.00;1.00
3208;DHT22;1616;52.394;9.756;2023-04-24T07:19:09;15.00;1.00
3208;DHT22;1616;52.394;9.756;2023-04-24T07:21:35;15.00;1.00
3208;DHT22;1616;52.394;9.756;2023-04-24T07:24:00;14.90;1.00
3208;DHT22;1616;52.394;9.756;2023-04-24T07:26:28;15.00;1.00
3208;DHT22;1616;52.394;9.756;2023-04-24T07:28:54;15.20;1.00
3208;DHT22;1616;52.394;9.756;2023-04-24T07:31:20;15.30;1.00
3208;DHT22;1616;52.394;9.756;2023-04-24T07:33:46;15.50;1.00
3208;DHT22;1616;52.394;9.756;2023-04-24T07:36:12;15.60;1.00
3208;DHT22;1616;52.394;9.756;2023-04-24T07:38:42;15.70;1.00
3208;DHT22;1616;52.394;9.756;2023-04-24T07:41:08;15.90;1.00
3208;DHT22;1616;52.394;9.756;2023-04-24T07:43:34;16.00;1.00
3208;DHT22;1616;52.394;9.756;2023-04-24T07:46:00;16.30;1.00
3208;DHT22;1616;52.394;9.756;2023-04-24T07:48:25;16.90;1.00
3208;DHT22;1616;52.394;9.756;2023-04-24T07:50:52;18.00;1.00
3208;DHT22;1616;52.394;9.756;2023-04-24T07:53:18;18.90;1.00
3208;DHT22;1616;52.394;9.756;2023-04-24T07:55:43;19.40;1.00
3208;DHT22;1616;52.394;9.756;2023-04-24T07:58:10;19.20;1.00
3208;DHT22;1616;52.394;9.756;2023-04-24T08:00:36;18.90;1.00
3208;DHT22;1616;52.394;9.756;2023-04-24T08:03:02;18.80;1.00
3208;DHT22;1616;52.394;9.756;2023-04-24T08:05:28;18.90;1.00
3208;DHT22;1616;52.394;9.756;2023-04-24T08:07:54;19.20;1.00
3208;DHT22;1616;52.394;9.756;2023-04-24T08:10:23;19.30;1.00
3208;DHT22;1616;52.394;9.756;2023-04-24T08:12:49;19.20;1.00
3208;DHT22;1616;52.394;9.756;2023-04-24T08:15:15;19.20;1.00
3208;DHT22;1616;52.394;9.756;2023-04-24T08:17:41;19.20;1.00
3208;DHT22;1616;52.394;9.756;2023-04-24T08:20:08;18.90;1.00
3208;DHT22;1616;52.394;9.756;2023-04-24T08:22:39;18.70;1.00
3208;DHT22;1616;52.394;9.756;2023-04-24T08:25:06;18.50;1.00
3208;DHT22;1616;52.394;9.756;2023-04-24T08:27:32;18.40;1.00
3208;DHT22;1616;52.394;9.756;2023-04-24T08:29:58;18.50;1.00
3208;DHT22;1616;52.394;9.756;2023-04-24T08:32:25;18.50;1.00
3208;DHT22;1616;52.394;9.756;2023-04-24T08:34:53;18.40;1.00
3208;DHT22;1616;52.394;9.756;2023-04-24T08:37:19;18.30;1.00
3208;DHT22;1616;52.394;9.756;2023-04-24T08:39:44;18.30;1.00
3208;DHT22;1616;52.394;9.756;2023-04-24T08:42:11;18.50;1.00
3208;DHT22;1616;52.394;9.756;2023-04-24T08:44:38;18.90;1.00
3208;DHT22;1616;52.394;9.756;2023-04-24T08:47:04;19.40;1.00
3208;DHT22;1616;52.394;9.756;2023-04-24T08:49:31;19.50;1.00
3208;DHT22;1616;52.394;9.756;2023-04-24T08:51:57;19.60;1.00
3208;DHT22;1616;52.394;9.756;2023-04-24T08:54:23;20.30;1.00
3208;DHT22;1616;52.394;9.756;2023-04-24T08:56:50;21.30;1.00
3208;DHT22;1616;52.394;9.756;2023-04-24T08:59:21;21.90;1.00
3208;DHT22;1616;52.394;9.756;2023-04-24T09:01:48;21.80;1.00
3208;DHT22;1616;52.394;9.756;2023-04-24T09:04:15;21.50;1.00
3208;DHT22;1616;52.394;9.756;2023-04-24T09:06:43;21.10;1.00
3208;DHT22;1616;52.394;9.756;2023-04-24T09:09:10;20.50;1.00
3208;DHT22;1616;52.394;9.756;2023-04-24T09:11:37;19.80;1.00
3208;DHT22;1616;52.394;9.756;2023-04-24T09:14:03;19.30;1.00
3208;DHT22;1616;52.394;9.756;2023-04-24T09:16:29;19.00;1.00
3208;DHT22;1616;52.394;9.756;2023-04-24T09:18:59;18.70;1.00
3208;DHT22;1616;52.394;9.756;2023-04-24T09:21:32;18.50;1.00
3208;DHT22;1616;52.394;9.756;2023-04-24T09:24:05;18.30;1.00
3208;DHT22;1616;52.394;9.756;2023-04-24T09:26:34;18.20;1.00
3208;DHT22;1616;52.394;9.756;2023-04-24T09:29:00;17.90;1.00
3208;DHT22;1616;52.394;9.756;2023-04-24T09:31:28;17.70;1.00
3208;DHT22;1616;52.394;9.756;2023-04-24T09:34:03;17.40;1.00
3208;DHT22;1616;52.394;9.756;2023-04-24T09:36:42;17.10;1.00
3208;DHT22;1616;52.394;9.756;2023-04-24T09:39:10;16.80;1.00
3208;DHT22;1616;52.394;9.756;2023-04-24T09:41:49;16.60;1.00
3208;DHT22;1616;52.394;9.756;2023-04-24T09:44:16;16.20;1.00
3208;DHT22;1616;52.394;9.756;2023-04-24T09:46:44;16.00;1.00
3208;DHT22;1616;52.394;9.756;2023-04-24T09:49:14;15.80;1.00
3208;DHT22;1616;52.394;9.756;2023-04-24T09:51:41;15.70;1.00
3208;DHT22;1616;52.394;9.756;2023-04-24T09:54:17;15.70;1.00
3208;DHT22;1616;52.394;9.756;2023-04-24T09:56:45;15.80;1.00
3208;DHT22;1616;52.394;9.756;2023-04-24T09:59:12;15.80;1.00
3208;DHT22;1616;52.394;9.756;2023-04-24T10:01:38;15.80;1.00
3208;DHT22;1616;52.394;9.756;2023-04-24T10:04:15;15.80;1.00
3208;DHT22;1616;52.394;9.756;2023-04-24T10:06:42;15.90;1.00
3208;DHT22;1616;52.394;9.756;2023-04-24T10:09:08;15.80;1.00
3208;DHT22;1616;52.394;9.756;2023-04-24T10:11:39;15.60;1.00
3208;DHT22;1616;52.394;9.756;2023-04-24T10:14:06;15.50;1.00
3208;DHT22;1616;52.394;9.756;2023-04-24T10:16:34;15.40;1.00
3208;DHT22;1616;52.394;9.756;2023-04-24T10:19:00;15.40;1.00
3208;DHT22;1616;52.394;9.756;2023-04-24T10:21:27;15.60;1.00
3208;DHT22;1616;52.394;9.756;2023-04-24T10:23:53;15.70;1.00
3208;DHT22;1616;52.394;9.756;2023-04-24T10:26:19;15.70;1.00
3208;DHT22;1616;52.394;9.756;2023-04-24T10:28:46;15.70;1.00
3208;DHT22;1616;52.394;9.756;2023-04-24T10:31:13;15.60;1.00
3208;DHT22;1616;52.394;9.756;2023-04-24T10:33:43;15.60;1.00
3208;DHT22;1616;52.394;9.756;2023-04-24T10:36:13;15.50;1.00
3208;DHT22;1616;52.394;9.756;2023-04-24T10:38:42;15.50;1.00
3208;DHT22;1616;52.394;9.756;2023-04-24T10:41:10;15.40;1.00
3208;DHT22;1616;52.394;9.756;2023-04-24T10:43:39;15.30;1.00
3208;DHT22;1616;52.394;9.756;2023-04-24T10:46:06;15.20;1.00
3208;DHT22;1616;52.394;9.756;2023-04-24T10:48:32;15.10;1.00
3208;DHT22;1616;52.394;9.756;2023-04-24T10:50:58;15.10;1.00
3208;DHT22;1616;52.394;9.756;2023-04-24T10:53:27;15.00;1.00
3208;DHT22;1616;52.394;9.756;2023-04-24T10:56:03;14.90;1.00
3208;DHT22;1616;52.394;9.756;2023-04-24T10:58:40;14.70;1.00
3208;DHT22;1616;52.394;9.756;2023-04-24T11:01:09;14.60;1.00
3208;DHT22;1616;52.394;9.756;2023-04-24T11:03:35;14.50;1.00
3208;DHT22;1616;52.394;9.756;2023-04-24T11:08:29;14.40;1.00
3208;DHT22;1616;52.394;9.756;2023-04-24T11:10:57;14.40;1.00
3208;DHT22;1616;52.394;9.756;2023-04-24T11:13:25;14.50;1.00
3208;DHT22;1616;52.394;9.756;2023-04-24T11:16:13;14.60;1.00
3208;DHT22;1616;52.394;9.756;2023-04-24T11:18:39;14.70;1.00
3208;DHT22;1616;52.394;9.756;2023-04-24T11:21:21;14.70;1.00
3208;DHT22;1616;52.394;9.756;2023-04-24T11:23:47;14.70;1.00
3208;DHT22;1616;52.394;9.756;2023-04-24T11:26:22;14.60;1.00
3208;DHT22;1616;52.394;9.756;2023-04-24T11:29:06;14.60;1.00
3208;DHT22;1616;52.394;9.756;2023-04-24T11:31:44;14.50;1.00
3208;DHT22;1616;52.394;9.756;2023-04-24T11:34:16;14.40;1.00
3208;DHT22;1616;52.394;9.756;2023-04-24T11:36:46;14.40;1.00
3208;DHT22;1616;52.394;9.756;2023-04-24T11:39:13;14.50;1.00
3208;DHT22;1616;52.394;9.756;2023-04-24T11:41:38;14.80;1.00
3208;DHT22;1616;52.394;9.756;2023-04-24T11:44:07;15.20;1.00
3208;DHT22;1616;52.394;9.756;2023-04-24T11:46:33;15.50;1.00
3208;DHT22;1616;52.394;9.756;2023-04-24T11:48:59;15.60;1.00
3208;DHT22;1616;52.394;9.756;2023-04-24T11:51:27;15.60;1.00
3208;DHT22;1616;52.394;9.756;2023-04-24T11:53:56;15.60;1.00
3208;DHT22;1616;52.394;9.756;2023-04-24T11:56:23;15.50;1.00
3208;DHT22;1616;52.394;9.756;2023-04-24T11:58:52;15.50;1.00
3208;DHT22;1616;52.394;9.756;2023-04-24T12:01:19;15.40;1.00
3208;DHT22;1616;52.394;9.756;2023-04-24T12:03:59;15.40;1.00
3208;DHT22;1616;52.394;9.756;2023-04-24T12:06:26;15.30;1.00
3208;DHT22;1616;52.394;9.756;2023-04-24T12:08:52;15.40;1.00
3208;DHT22;1616;52.394;9.756;2023-04-24T12:11:20;15.30;1.00
3208;DHT22;1616;52.394;9.756;2023-04-24T12:13:46;15.30;1.00
3208;DHT22;1616;52.394;9.756;2023-04-24T12:16:11;15.20;1.00
3208;DHT22;1616;52.394;9.756;2023-04-24T12:18:44;15.20;1.00
3208;DHT22;1616;52.394;9.756;2023-04-24T12:21:19;15.10;1.00
3208;DHT22;1616;52.394;9.756;2023-04-24T12:23:46;15.10;1.00
3208;DHT22;1616;52.394;9.756;2023-04-24T12:26:21;14.90;1.00
3208;DHT22;1616;52.394;9.756;2023-04-24T12:28:48;14.80;1.00
3208;DHT22;1616;52.394;9.756;2023-04-24T12:31:15;14.80;1.00
3208;DHT22;1616;52.394;9.756;2023-04-24T12:33:41;14.80;1.00
3208;DHT22;1616;52.394;9.756;2023-04-24T12:36:10;14.90;1.00
3208;DHT22;1616;52.394;9.756;2023-04-24T12:38:37;15.10;1.00
3208;DHT22;1616;52.394;9.756;2023-04-24T12:41:08;15.30;1.00
3208;DHT22;1616;52.394;9.756;2023-04-24T12:43:35;15.70;1.00
3208;DHT22;1616;52.394;9.756;2023-04-24T12:46:02;15.80;1.00
3208;DHT22;1616;52.394;9.756;2023-04-24T12:48:28;15.90;1.00
3208;DHT22;1616;52.394;9.756;2023-04-24T12:50:54;16.10;1.00
3208;DHT22;1616;52.394;9.756;2023-04-24T12:53:21;16.10;1.00
3208;DHT22;1616;52.394;9.756;2023-04-24T12:55:46;16.10;1.00
3208;DHT22;1616;52.394;9.756;2023-04-24T12:58:21;16.00;1.00
3208;DHT22;1616;52.394;9.756;2023-04-24T13:00:47;16.00;1.00
3208;DHT22;1616;52.394;9.756;2023-04-24T13:03:13;15.80;1.00
3208;DHT22;1616;52.394;9.756;2023-04-24T13:05:39;15.70;1.00
3208;DHT22;1616;52.394;9.756;2023-04-24T13:08:04;15.40;1.00
3208;DHT22;1616;52.394;9.756;2023-04-24T13:10:31;15.20;1.00
3208;DHT22;1616;52.394;9.756;2023-04-24T13:12:57;15.00;1.00
3208;DHT22;1616;52.394;9.756;2023-04-24T13:15:23;14.70;1.00
3208;DHT22;1616;52.394;9.756;2023-04-24T13:17:49;14.50;1.00
3208;DHT22;1616;52.394;9.756;2023-04-24T13:20:14;14.20;1.00
3208;DHT22;1616;52.394;9.756;2023-04-24T13:22:40;14.00;1.00
3208;DHT22;1616;52.394;9.756;2023-04-24T13:25:07;13.70;1.00
3208;DHT22;1616;52.394;9.756;2023-04-24T13:27:33;13.50;1.00
3208;DHT22;1616;52.394;9.756;2023-04-24T13:29:58;13.40;1.00
3208;DHT22;1616;52.394;9.756;2023-04-24T13:32:24;13.30;1.00
3208;DHT22;1616;52.394;9.756;2023-04-24T13:34:50;13.30;1.00
3208;DHT22;1616;52.394;9.756;2023-04-24T13:37:16;13.20;1.00
3208;DHT22;1616;52.394;9.756;2023-04-24T13:39:41;13.20;1.00
3208;DHT22;1616;52.394;9.756;2023-04-24T13:42:07;13.20;1.00
3208;DHT22;1616;52.394;9.756;2023-04-24T13:44:32;13.20;1.00
3208;DHT22;1616;52.394;9.756;2023-04-24T13:46:58;13.20;1.00
3208;DHT22;1616;52.394;9.756;2023-04-24T13:49:25;13.10;1.00
3208;DHT22;1616;52.394;9.756;2023-04-24T13:51:51;13.10;1.00
3208;DHT22;1616;52.394;9.756;2023-04-24T13:54:17;13.00;1.00
3208;DHT22;1616;52.394;9.756;2023-04-24T13:56:42;12.90;1.00
3208;DHT22;1616;52.394;9.756;2023-04-24T13:59:08;12.90;1.00
3208;DHT22;1616;52.394;9.756;2023-04-24T14:01:34;12.90;1.00
3208;DHT22;1616;52.394;9.756;2023-04-24T14:04:00;12.90;1.00
3208;DHT22;1616;52.394;9.756;2023-04-24T14:06:25;12.80;1.00
3208;DHT22;1616;52.394;9.756;2023-04-24T14:08:52;12.70;1.00
3208;DHT22;1616;52.394;9.756;2023-04-24T14:11:18;12.50;1.00
3208;DHT22;1616;52.394;9.756;2023-04-24T14:13:44;12.30;1.00
3208;DHT22;1616;52.394;9.756;2023-04-24T14:16:10;12.10;1.00
3208;DHT22;1616;52.394;9.756;2023-04-24T14:18:36;11.90;1.00
3208;DHT22;1616;52.394;9.756;2023-04-24T14:21:03;11.80;1.00
3208;DHT22;1616;52.394;9.756;2023-04-24T14:23:29;11.70;1.00
3208;DHT22;1616;52.394;9.756;2023-04-24T14:25:55;11.50;1.00
3208;DHT22;1616;52.394;9.756;2023-04-24T14:28:21;11.40;1.00
3208;DHT22;1616;52.394;9.756;2023-04-24T14:30:47;11.30;1.00
3208;DHT22;1616;52.394;9.756;2023-04-24T14:33:13;11.10;1.00
3208;DHT22;1616;52.394;9.756;2023-04-24T14:35:40;11.00;1.00
3208;DHT22;1616;52.394;9.756;2023-04-24T14:38:09;10.90;1.00
3208;DHT22;1616;52.394;9.756;2023-04-24T14:40:35;10.80;1.00
3208;DHT22;1616;52.394;9.756;2023-04-24T14:43:01;10.70;1.00
3208;DHT22;1616;52.394;9.756;2023-04-24T14:45:27;10.70;1.00
3208;DHT22;1616;52.394;9.756;2023-04-24T14:47:53;10.60;1.00
3208;DHT22;1616;52.394;9.756;2023-04-24T14:50:19;10.60;1.00
3208;DHT22;1616;52.394;9.756;2023-04-24T14:52:45;10.60;1.00
3208;DHT22;1616;52.394;9.756;2023-04-24T14:55:12;10.60;1.00
3208;DHT22;1616;52.394;9.756;2023-04-24T14:57:38;9.80;1.00
3208;DHT22;1616;52.394;9.756;2023-04-24T15:00:05;10.50;1.00
3208;DHT22;1616;52.394;9.756;2023-04-24T15:02:33;10.50;1.00
3208;DHT22;1616;52.394;9.756;2023-04-24T15:04:59;10.60;1.00
3208;DHT22;1616;52.394;9.756;2023-04-24T15:07:25;10.50;1.00
3208;DHT22;1616;52.394;9.756;2023-04-24T15:09:50;10.70;1.00
3208;DHT22;1616;52.394;9.756;2023-04-24T15:12:16;10.70;1.00
3208;DHT22;1616;52.394;9.756;2023-04-24T15:14:42;10.80;1.00
3208;DHT22;1616;52.394;9.756;2023-04-24T15:17:09;10.70;1.00
3208;DHT22;1616;52.394;9.756;2023-04-24T15:19:35;10.80;1.00
3208;DHT22;1616;52.394;9.756;2023-04-24T15:22:01;10.80;1.00
3208;DHT22;1616;52.394;9.756;2023-04-24T15:24:27;10.70;1.00
3208;DHT22;1616;52.394;9.756;2023-04-24T15:26:53;10.70;1.00
3208;DHT22;1616;52.394;9.756;2023-04-24T15:29:18;10.70;1.00
3208;DHT22;1616;52.394;9.756;2023-04-24T15:31:44;10.70;1.00
3208;DHT22;1616;52.394;9.756;2023-04-24T15:34:09;10.80;1.00
3208;DHT22;1616;52.394;9.756;2023-04-24T15:36:35;10.80;1.00
3208;DHT22;1616;52.394;9.756;2023-04-24T15:39:02;10.90;1.00
3208;DHT22;1616;52.394;9.756;2023-04-24T15:41:27;10.90;1.00
3208;DHT22;1616;52.394;9.756;2023-04-24T15:43:53;11.00;1.00
3208;DHT22;1616;52.394;9.756;2023-04-24T15:46:20;10.90;1.00
3208;DHT22;1616;52.394;9.756;2023-04-24T15:48:45;11.00;1.00
3208;DHT22;1616;52.394;9.756;2023-04-24T15:51:12;11.00;1.00
3208;DHT22;1616;52.394;9.756;2023-04-24T15:53:37;11.00;1.00
3208;DHT22;1616;52.394;9.756;2023-04-24T15:56:03;10.90;1.00
3208;DHT22;1616;52.394;9.756;2023-04-24T15:58:29;11.00;1.00
3208;DHT22;1616;52.394;9.756;2023-04-24T16:00:55;11.00;1.00
3208;DHT22;1616;52.394;9.756;2023-04-24T16:03:21;10.90;1.00
3208;DHT22;1616;52.394;9.756;2023-04-24T16:05:46;11.00;1.00
3208;DHT22;1616;52.394;9.756;2023-04-24T16:08:12;11.00;1.00
3208;DHT22;1616;52.394;9.756;2023-04-24T16:10:40;11.10;1.00
3208;DHT22;1616;52.394;9.756;2023-04-24T16:13:06;11.20;1.00
3208;DHT22;1616;52.394;9.756;2023-04-24T16:15:33;11.20;1.00